Time;durP1;ratioP1;P1;durP2;ratioP2;P2;SDS_P1;SDS_P2;PMS_P1;PMS_P2;Temp;Humidity;BMP_temperature;BMP_pressure;BME280_temperature;BME280_humidity;BME280_pressure;Samples;Min_cycle;Max_cycle;Signal;HPM_P1;HPM_P2
2023/01/13 00:00:26;;;;;;;32.17;5.30;;;9.00;99.90;;;;;;5047867;28;20086;-83
2023/01/13 00:03:24;;;;;;;30.25;4.82;;;9.00;99.90;;;;;;5031229;28;20036;-83
2023/01/13 00:06:00;;;;;;;34.67;5.25;;;8.90;99.90;;;;;;5016607;28;20094;-84
2023/01/13 00:08:56;;;;;;;35.78;6.13;;;8.90;99.90;;;;;;5055389;28;20040;-83
2023/01/13 00:11:26;;;;;;;30.77;6.30;;;8.80;99.90;;;;;;5036427;28;20084;-83
2023/01/13 00:19:34;;;;;;;28.77;5.28;;;8.70;99.90;;;;;;5016945;28;20045;-83
2023/01/13 00:25:24;;;;;;;34.67;5.97;;;8.70;99.90;;;;;;4988833;28;20045;-83
2023/01/13 00:28:08;;;;;;;26.55;4.70;;;8.60;99.90;;;;;;4963409;28;20057;-83
2023/01/13 00:30:40;;;;;;;33.33;5.18;;;8.60;99.90;;;;;;4995525;28;20057;-83
2023/01/13 00:33:26;;;;;;;39.70;6.15;;;8.60;99.90;;;;;;4994863;28;20096;-83
2023/01/13 00:36:17;;;;;;;29.88;5.53;;;8.50;99.90;;;;;;4993624;28;20046;-83
2023/01/13 00:38:53;;;;;;;22.45;3.90;;;8.50;99.90;;;;;;4969903;28;20042;-83
2023/01/13 00:45:02;;;;;;;22.88;4.47;;;8.40;99.90;;;;;;4965796;28;20442;-84
2023/01/13 00:50:29;;;;;;;27.55;4.43;;;8.30;99.90;;;;;;5020557;28;20041;-83
2023/01/13 00:53:07;;;;;;;25.45;4.65;;;8.30;99.90;;;;;;5039412;28;20044;-83
2023/01/13 00:56:02;;;;;;;23.13;4.38;;;8.30;99.90;;;;;;5037279;28;20116;-83
2023/01/13 00:58:55;;;;;;;28.30;4.40;;;8.30;99.90;;;;;;5015828;28;20664;-83
2023/01/13 01:01:29;;;;;;;24.55;3.63;;;8.30;99.90;;;;;;5027332;28;20119;-83
2023/01/13 01:03:57;;;;;;;25.15;3.90;;;8.20;99.90;;;;;;5020049;28;20048;-83
2023/01/13 01:06:27;;;;;;;27.13;4.93;;;8.20;99.90;;;;;;5050212;28;20229;-84
2023/01/13 01:14:49;;;;;;;34.42;5.18;;;8.30;99.90;;;;;;5067373;28;20052;-83
2023/01/13 01:17:28;;;;;;;26.05;5.95;;;8.30;99.90;;;;;;5056090;28;20045;-83
2023/01/13 01:19:59;;;;;;;25.98;4.85;;;8.40;99.90;;;;;;5046448;28;20047;-83
2023/01/13 01:25:34;;;;;;;33.85;5.28;;;8.40;99.90;;;;;;5077634;28;20040;-84
2023/01/13 01:28:13;;;;;;;29.48;5.13;;;8.40;99.90;;;;;;5057822;28;20039;-84
2023/01/13 01:30:47;;;;;;;34.67;5.53;;;8.40;99.90;;;;;;5045561;28;20445;-83
2023/01/13 01:39:09;;;;;;;29.95;5.05;;;8.30;99.90;;;;;;5065405;28;20275;-83
2023/01/13 01:43:58;;;;;;;42.90;5.88;;;8.30;99.90;;;;;;5054162;28;20040;-84
2023/01/13 01:50:53;;;;;;;30.40;6.18;;;8.20;99.90;;;;;;5072049;28;20114;-83
2023/01/13 01:53:52;;;;;;;28.02;5.05;;;8.20;99.90;;;;;;5051389;28;20472;-84
2023/01/13 01:56:29;;;;;;;30.75;5.60;;;8.10;99.90;;;;;;5049861;28;20106;-83
2023/01/13 01:58:58;;;;;;;37.35;4.78;;;8.10;99.90;;;;;;5086570;28;20075;-83
2023/01/13 02:04:49;;;;;;;28.80;5.43;;;8.00;99.90;;;;;;5051997;28;20500;-83
2023/01/13 02:13:38;;;;;;;34.00;5.78;;;7.90;99.90;;;;;;4973355;28;20053;-84
2023/01/13 02:16:44;;;;;;;34.58;6.20;;;7.90;99.90;;;;;;4960647;28;20421;-83
2023/01/13 02:20:04;;;;;;;28.73;5.38;;;7.90;99.90;;;;;;4976253;28;20046;-83
2023/01/13 02:23:04;;;;;;;29.98;4.88;;;7.80;99.90;;;;;;4979526;28;20453;-83
2023/01/13 02:26:09;;;;;;;26.85;4.68;;;7.80;99.90;;;;;;5003664;28;20094;-83
2023/01/13 02:32:12;;;;;;;25.90;4.85;;;7.70;99.90;;;;;;5061932;28;20504;-84
2023/01/13 02:34:48;;;;;;;33.00;5.65;;;7.70;99.90;;;;;;5067836;28;20085;-83
2023/01/13 02:37:21;;;;;;;34.95;4.95;;;7.60;99.90;;;;;;5054601;28;20098;-83
2023/01/13 02:40:17;;;;;;;27.42;5.68;;;7.60;99.90;;;;;;5058275;28;20048;-84
2023/01/13 02:46:39;;;;;;;36.22;5.35;;;7.60;99.90;;;;;;5074778;28;20047;-83
2023/01/13 02:49:23;;;;;;;34.45;5.72;;;7.60;99.90;;;;;;5060013;28;20123;-84
2023/01/13 02:52:25;;;;;;;33.03;5.15;;;7.70;99.90;;;;;;5057989;28;20378;-83
2023/01/13 02:55:54;;;;;;;32.10;5.72;;;7.70;99.90;;;;;;5066221;28;20052;-84
2023/01/13 02:58:44;;;;;;;47.38;6.32;;;7.70;99.90;;;;;;5063079;28;20044;-83
2023/01/13 03:01:15;;;;;;;25.85;4.93;;;7.80;99.90;;;;;;5059441;28;20051;-83
2023/01/13 03:03:56;;;;;;;28.55;5.20;;;7.80;99.90;;;;;;5048443;28;20094;-83
2023/01/13 03:06:57;;;;;;;34.88;5.55;;;7.90;99.90;;;;;;5046157;28;20063;-83
2023/01/13 03:09:40;;;;;;;44.40;6.45;;;7.90;99.90;;;;;;5056189;28;20055;-83
2023/01/13 03:13:00;;;;;;;31.60;5.10;;;8.00;99.90;;;;;;5045849;28;20102;-83
2023/01/13 03:15:58;;;;;;;28.05;5.45;;;8.00;99.90;;;;;;5048430;28;20047;-83
2023/01/13 03:19:01;;;;;;;38.00;5.65;;;8.00;99.90;;;;;;5064909;28;20045;-83
2023/01/13 03:25:25;;;;;;;34.47;5.75;;;8.10;99.90;;;;;;5015256;28;20041;-84
2023/01/13 03:31:30;;;;;;;;;;;;;;;;;;;;;
2023/01/13 03:34:30;;;;;;;36.78;5.75;;;8.10;99.90;;;;;;5069717;28;20102;-83
2023/01/13 03:37:15;;;;;;;;;;;;;;;;;;;;;
2023/01/13 03:40:24;;;;;;;30.85;5.32;;;8.10;99.90;;;;;;5067073;28;20056;-83
2023/01/13 03:45:51;;;;;;;;;;;8.10;99.90;;;;;;5062497;28;20186;-83
2023/01/13 03:48:28;;;;;;;32.40;4.95;;;8.10;99.90;;;;;;5068161;28;19924;-84
2023/01/13 03:51:00;;;;;;;38.80;5.35;;;8.00;99.90;;;;;;5071011;28;20179;-83
2023/01/13 03:53:46;;;;;;;43.53;5.32;;;8.10;99.90;;;;;;5065109;28;20092;-83
2023/01/13 03:56:25;;;;;;;25.73;5.00;;;8.10;99.90;;;;;;5054861;28;20040;-83
2023/01/13 03:58:52;;;;;;;32.38;5.68;;;8.10;99.90;;;;;;5052309;28;20036;-84
2023/01/13 04:01:30;;;;;;;30.75;5.90;;;8.10;99.90;;;;;;5048958;28;20463;-84
2023/01/13 04:04:00;;;;;;;35.97;6.78;;;8.10;99.90;;;;;;5039349;28;20047;-84
2023/01/13 04:06:44;;;;;;;33.50;5.80;;;8.10;99.90;;;;;;5065880;28;20059;-84
2023/01/13 04:09:23;;;;;;;29.65;5.28;;;8.20;99.90;;;;;;5048711;28;20409;-84
2023/01/13 04:12:13;;;;;;;32.00;5.05;;;8.20;99.90;;;;;;5039041;28;20055;-84
2023/01/13 04:14:39;;;;;;;36.15;5.10;;;8.20;99.90;;;;;;5053729;28;20045;-83
2023/01/13 04:17:05;;;;;;;31.67;6.18;;;8.20;99.90;;;;;;5022870;28;20090;-84
2023/01/13 04:19:31;;;;;;;34.00;5.93;;;8.20;99.90;;;;;;5036392;28;20041;-83
2023/01/13 04:21:58;;;;;;;43.45;5.70;;;8.30;99.90;;;;;;5055293;28;20040;-84
2023/01/13 04:24:24;;;;;;;34.70;4.82;;;8.20;99.90;;;;;;5052528;28;20033;-84
2023/01/13 04:26:50;;;;;;;30.92;6.20;;;7.90;99.90;;;;;;5032833;28;20488;-83
2023/01/13 04:29:16;;;;;;;28.48;5.20;;;8.10;99.90;;;;;;5053509;28;20039;-84
2023/01/13 04:31:41;;;;;;;31.95;5.63;;;8.10;99.90;;;;;;5040871;28;20048;-84
2023/01/13 04:34:09;;;;;;;35.55;5.25;;;8.00;99.90;;;;;;5037335;28;20041;-84
2023/01/13 04:36:34;;;;;;;29.08;4.78;;;8.00;99.90;;;;;;5029720;28;20404;-84
2023/01/13 04:39:01;;;;;;;38.65;6.78;;;8.00;99.90;;;;;;5050685;28;20052;-84
2023/01/13 04:41:27;;;;;;;28.58;5.63;;;8.30;99.90;;;;;;5032277;28;20048;-84
2023/01/13 04:43:53;;;;;;;34.45;5.85;;;8.00;99.90;;;;;;5064749;28;20036;-84
2023/01/13 04:46:18;;;;;;;26.17;5.40;;;7.90;99.90;;;;;;5056338;28;20048;-83
2023/01/13 04:48:44;;;;;;;28.02;5.32;;;7.90;99.90;;;;;;5040730;28;20036;-84
2023/01/13 04:51:09;;;;;;;32.70;6.32;;;7.90;99.90;;;;;;5039198;28;20508;-84
2023/01/13 04:53:35;;;;;;;34.60;5.88;;;7.90;99.90;;;;;;5021067;28;20041;-83
2023/01/13 04:56:01;;;;;;;31.17;5.15;;;7.90;99.90;;;;;;5038915;28;20072;-83
2023/01/13 04:58:26;;;;;;;36.33;5.88;;;7.80;99.90;;;;;;5037914;28;20037;-84
2023/01/13 05:00:53;;;;;;;28.30;4.50;;;7.90;99.90;;;;;;5042815;28;20040;-84
2023/01/13 05:03:19;;;;;;;26.52;4.70;;;7.80;99.90;;;;;;5060401;28;20066;-83
2023/01/13 05:05:49;;;;;;;31.65;4.57;;;7.80;99.90;;;;;;5041943;28;20502;-84
2023/01/13 05:08:15;;;;;;;28.05;4.95;;;7.90;99.90;;;;;;5073686;28;20037;-83
2023/01/13 05:10:40;;;;;;;37.90;5.40;;;7.80;99.90;;;;;;5056428;28;20113;-84
2023/01/13 05:16:59;;;;;;;23.25;4.28;;;7.80;99.90;;;;;;5070721;28;20492;-84
2023/01/13 05:18:47;;;;;;;25.10;4.15;;;7.70;99.90;;;;;;5048779;28;20404;-84
2023/01/13 05:25:20;;;;;;;32.50;4.85;;;7.70;99.90;;;;;;5059007;28;20048;-84
2023/01/13 05:26:43;;;;;;;27.25;4.82;;;7.70;99.90;;;;;;5054812;28;20048;-84
2023/01/13 05:29:08;;;;;;;26.25;3.53;;;7.70;99.90;;;;;;5041587;28;20037;-84
2023/01/13 05:31:34;;;;;;;28.05;4.60;;;7.80;99.90;;;;;;5042749;28;20085;-84
2023/01/13 05:34:00;;;;;;;25.13;4.10;;;7.70;99.90;;;;;;5075660;28;20197;-84
2023/01/13 05:36:25;;;;;;;22.00;4.05;;;7.80;99.90;;;;;;5038252;28;20102;-85
2023/01/13 05:38:51;;;;;;;19.90;3.67;;;8.10;99.90;;;;;;5073816;28;20041;-84
2023/01/13 05:44:01;;;;;;;19.58;3.60;;;7.70;99.90;;;;;;5075989;28;20048;-84
2023/01/13 05:46:26;;;;;;;22.08;4.38;;;7.80;99.90;;;;;;5056120;28;20036;-84
2023/01/13 05:48:52;;;;;;;24.65;4.45;;;7.80;99.90;;;;;;5053241;28;20036;-84
2023/01/13 05:51:21;;;;;;;20.33;3.85;;;7.80;99.90;;;;;;5058919;28;20040;-83
2023/01/13 05:53:46;;;;;;;19.83;4.10;;;7.80;99.90;;;;;;5040717;28;20051;-83
2023/01/13 05:56:12;;;;;;;18.70;4.90;;;7.80;99.90;;;;;;5076144;28;20131;-84
2023/01/13 05:58:38;;;;;;;28.45;5.50;;;7.80;99.90;;;;;;5041853;28;20040;-84
2023/01/13 06:01:06;;;;;;;26.58;5.97;;;7.80;99.90;;;;;;5029535;28;20163;-85
2023/01/13 06:03:32;;;;;;;21.50;5.45;;;7.80;99.90;;;;;;5061390;28;20044;-83
2023/01/13 06:06:00;;;;;;;24.55;5.35;;;7.80;99.90;;;;;;5053373;28;20041;-83
2023/01/13 06:08:26;;;;;;;27.15;6.28;;;7.80;99.90;;;;;;5049171;28;20044;-86
2023/01/13 06:10:52;;;;;;;24.88;5.57;;;7.80;99.90;;;;;;5037027;28;20044;-87
2023/01/13 06:13:17;;;;;;;24.15;5.25;;;7.80;99.90;;;;;;5059535;28;20396;-86
2023/01/13 06:15:43;;;;;;;24.95;5.10;;;7.70;99.90;;;;;;5057756;28;20127;-86
2023/01/13 06:18:09;;;;;;;21.10;4.53;;;7.70;99.90;;;;;;5039277;28;20159;-83
2023/01/13 06:20:35;;;;;;;15.18;4.22;;;7.80;99.90;;;;;;5059412;28;20035;-84
2023/01/13 06:23:01;;;;;;;17.23;2.95;;;7.80;99.90;;;;;;5077137;28;20075;-83
2023/01/13 06:25:36;;;;;;;19.48;3.13;;;7.80;99.90;;;;;;5065468;28;20129;-84
2023/01/13 06:28:03;;;;;;;14.32;3.00;;;8.60;99.90;;;;;;5073819;28;20172;-83
2023/01/13 06:30:35;;;;;;;14.82;3.47;;;8.10;99.90;;;;;;5041321;28;20070;-83
2023/01/13 06:33:05;;;;;;;15.38;2.13;;;7.90;99.90;;;;;;5060705;28;20042;-83
2023/01/13 06:35:35;;;;;;;15.30;2.53;;;8.30;99.90;;;;;;5052790;28;20117;-83
2023/01/13 06:38:04;;;;;;;16.70;2.67;;;8.80;99.90;;;;;;5049141;28;20496;-84
2023/01/13 06:40:30;;;;;;;14.75;2.58;;;7.90;99.90;;;;;;5061378;28;20033;-84
2023/01/13 06:43:15;;;;;;;16.25;2.88;;;8.00;99.90;;;;;;5037629;28;20034;-83
2023/01/13 06:45:52;;;;;;;13.30;2.50;;;7.90;99.90;;;;;;5058822;28;20040;-83
2023/01/13 06:48:22;;;;;;;14.50;2.97;;;7.90;99.90;;;;;;5070063;28;20041;-84
2023/01/13 06:50:47;;;;;;;13.82;2.33;;;7.90;99.90;;;;;;5074519;28;20112;-84
2023/01/13 06:53:13;;;;;;;19.27;2.80;;;8.00;99.90;;;;;;5057965;28;20040;-84
2023/01/13 06:55:39;;;;;;;15.68;2.30;;;7.90;99.90;;;;;;5074346;28;20054;-83
2023/01/13 06:58:05;;;;;;;14.45;3.05;;;7.90;99.90;;;;;;5075764;28;20046;-84
2023/01/13 07:00:36;;;;;;;19.25;3.08;;;7.90;99.90;;;;;;5043553;28;20040;-85
2023/01/13 07:03:14;;;;;;;19.73;2.40;;;7.90;99.90;;;;;;5050938;28;20036;-83
2023/01/13 07:05:41;;;;;;;19.60;2.55;;;7.90;99.90;;;;;;5086229;28;20041;-82
2023/01/13 07:08:08;;;;;;;16.67;2.92;;;8.20;99.90;;;;;;5052366;28;20092;-83
2023/01/13 07:10:35;;;;;;;19.30;2.95;;;7.90;99.90;;;;;;5057244;28;20523;-82
2023/01/13 07:15:58;;;;;;;17.05;3.03;;;8.00;99.90;;;;;;5070341;28;20644;-84
2023/01/13 07:18:26;;;;;;;23.55;3.35;;;7.90;99.90;;;;;;5050179;28;20483;-84
2023/01/13 07:20:57;;;;;;;17.08;2.67;;;7.90;99.90;;;;;;5075855;28;20403;-86
2023/01/13 07:23:26;;;;;;;24.40;4.30;;;7.90;99.90;;;;;;5057822;28;20032;-84
2023/01/13 07:25:57;;;;;;;18.20;3.30;;;7.80;99.90;;;;;;5054672;28;20042;-85
2023/01/13 07:28:25;;;;;;;20.00;2.83;;;7.80;99.90;;;;;;5073036;28;20068;-86
2023/01/13 07:30:51;;;;;;;18.42;3.13;;;7.80;99.90;;;;;;5052848;28;20040;-85
2023/01/13 07:33:19;;;;;;;18.58;3.40;;;7.70;99.90;;;;;;5056750;28;20047;-86
2023/01/13 07:35:46;;;;;;;17.52;3.22;;;7.70;99.90;;;;;;5015048;28;20554;-84
2023/01/13 07:38:13;;;;;;;19.67;3.53;;;8.50;99.90;;;;;;5056478;28;20044;-84
2023/01/13 07:40:39;;;;;;;25.38;3.58;;;7.50;99.90;;;;;;5049476;28;20048;-83
2023/01/13 07:45:55;;;;;;;19.90;3.30;;;7.40;99.90;;;;;;5072312;28;20040;-82
2023/01/13 07:48:21;;;;;;;23.50;3.88;;;7.50;99.90;;;;;;5057928;28;20044;-82
2023/01/13 07:50:46;;;;;;;18.92;2.83;;;7.40;99.90;;;;;;5041010;28;20036;-81
2023/01/13 07:53:12;;;;;;;21.08;3.20;;;7.40;99.90;;;;;;5031436;28;20033;-88
2023/01/13 07:55:42;;;;;;;25.73;4.38;;;7.30;99.90;;;;;;5060690;28;20492;-87
2023/01/13 07:58:11;;;;;;;21.70;3.08;;;7.30;99.90;;;;;;5062843;28;20050;-88
2023/01/13 08:00:37;;;;;;;25.20;3.20;;;8.10;99.90;;;;;;5061657;28;20070;-87
2023/01/13 08:03:03;;;;;;;22.83;3.75;;;7.30;99.90;;;;;;5043570;28;20148;-87
2023/01/13 08:05:29;;;;;;;20.65;4.00;;;7.30;99.90;;;;;;5059868;28;20036;-86
2023/01/13 08:07:55;;;;;;;31.13;4.72;;;7.80;99.90;;;;;;5031951;28;20036;-87
2023/01/13 08:10:21;;;;;;;26.20;4.35;;;7.20;99.90;;;;;;5042095;28;20044;-87
2023/01/13 08:15:33;;;;;;;23.30;3.60;;;7.20;99.90;;;;;;5056041;28;20090;-86
2023/01/13 08:17:59;;;;;;;24.63;3.83;;;7.20;99.90;;;;;;5074349;28;20094;-85
2023/01/13 08:20:26;;;;;;;23.20;3.83;;;7.20;99.90;;;;;;5050282;28;20329;-86
2023/01/13 08:22:58;;;;;;;22.50;3.30;;;8.10;99.90;;;;;;5052168;28;20554;-86
2023/01/13 08:25:26;;;;;;;25.08;3.78;;;7.30;99.90;;;;;;5053026;28;20097;-86
2023/01/13 08:27:52;;;;;;;17.45;2.90;;;7.30;99.90;;;;;;5059274;28;20032;-87
2023/01/13 08:30:18;;;;;;;18.67;2.78;;;7.20;99.90;;;;;;5042801;28;20491;-88
2023/01/13 08:32:44;;;;;;;29.42;4.35;;;7.20;99.90;;;;;;5046125;28;20044;-87
2023/01/13 08:35:11;;;;;;;21.77;3.22;;;7.20;99.90;;;;;;5062778;28;20031;-87
2023/01/13 08:37:36;;;;;;;23.05;3.63;;;7.30;99.90;;;;;;5063800;28;20038;-87
2023/01/13 08:40:03;;;;;;;23.73;3.40;;;7.30;99.90;;;;;;5062552;28;20484;-88
2023/01/13 08:42:29;;;;;;;24.23;3.53;;;7.30;99.90;;;;;;5047021;28;20567;-87
2023/01/13 08:44:55;;;;;;;21.30;3.10;;;7.30;99.90;;;;;;5043334;28;20029;-87
2023/01/13 08:47:22;;;;;;;29.27;4.60;;;7.30;99.90;;;;;;5067017;28;20507;-87
2023/01/13 08:49:47;;;;;;;30.30;4.00;;;7.50;99.90;;;;;;5060836;28;20040;-86
2023/01/13 08:52:13;;;;;;;24.52;4.35;;;8.10;99.90;;;;;;5057986;28;20128;-87
2023/01/13 08:54:40;;;;;;;24.95;3.65;;;7.40;99.90;;;;;;5046345;28;20040;-87
2023/01/13 08:57:06;;;;;;;18.75;3.40;;;7.40;99.90;;;;;;5044988;28;20051;-87
2023/01/13 08:59:32;;;;;;;19.52;3.35;;;7.50;99.90;;;;;;5061769;28;20079;-86
2023/01/13 09:01:58;;;;;;;25.17;4.18;;;7.50;99.90;;;;;;5063185;28;20035;-86
2023/01/13 09:04:26;;;;;;;15.07;3.25;;;7.50;99.90;;;;;;5063293;28;20065;-86
2023/01/13 09:06:53;;;;;;;18.08;3.67;;;7.50;99.90;;;;;;5060232;28;20160;-83
2023/01/13 09:09:20;;;;;;;25.48;3.75;;;7.60;99.90;;;;;;5071920;28;20522;-84
2023/01/13 09:14:37;;;;;;;23.60;3.17;;;8.30;99.90;;;;;;5073634;28;20051;-84
2023/01/13 09:17:03;;;;;;;29.20;4.53;;;7.60;99.90;;;;;;5041369;28;20092;-83
2023/01/13 09:19:29;;;;;;;21.20;4.00;;;7.60;99.90;;;;;;5061442;28;20036;-82
2023/01/13 09:21:56;;;;;;;24.67;4.22;;;8.10;99.90;;;;;;5041554;28;20557;-82
2023/01/13 09:24:23;;;;;;;28.00;3.70;;;7.70;99.90;;;;;;5060484;28;20399;-83
2023/01/13 09:26:49;;;;;;;24.05;3.88;;;7.70;99.90;;;;;;5075058;28;20055;-84
2023/01/13 09:29:15;;;;;;;24.10;3.85;;;7.70;99.90;;;;;;5078207;28;20044;-83
2023/01/13 09:31:41;;;;;;;18.08;3.50;;;7.70;99.90;;;;;;5070319;28;20070;-84
2023/01/13 09:36:56;;;;;;;23.33;3.92;;;7.80;99.90;;;;;;5077528;28;20044;-85
2023/01/13 09:39:22;;;;;;;22.80;4.03;;;7.70;99.90;;;;;;5064619;28;20095;-84
2023/01/13 09:44:56;;;;;;;24.20;4.13;;;7.70;99.90;;;;;;5091737;28;20040;-83
2023/01/13 09:47:43;;;;;;;;;;;;;;;;;;;;;
2023/01/13 09:50:20;;;;;;;27.10;3.92;;;7.70;99.90;;;;;;5077833;28;20113;-82
2023/01/13 09:52:51;;;;;;;24.20;3.42;;;7.70;99.90;;;;;;5071359;28;20042;-81
2023/01/13 09:55:31;;;;;;;25.88;3.72;;;7.60;99.90;;;;;;5087604;28;20039;-82
2023/01/13 09:57:57;;;;;;;30.67;5.05;;;7.60;99.90;;;;;;5083957;28;20507;-84
2023/01/13 10:00:27;;;;;;;27.55;4.22;;;7.50;99.90;;;;;;5057966;28;20040;-85
2023/01/13 10:03:18;;;;;;;24.33;3.97;;;7.50;99.90;;;;;;5057767;28;20506;-85
2023/01/13 10:05:49;;;;;;;30.30;4.68;;;7.50;99.90;;;;;;5058580;28;20056;-84
2023/01/13 10:08:33;;;;;;;21.30;3.92;;;7.50;99.90;;;;;;5067038;28;20489;-85
2023/01/13 10:14:19;;;;;;;25.17;4.18;;;7.40;99.90;;;;;;5038068;28;20051;-84
2023/01/13 10:17:19;;;;;;;23.73;4.68;;;7.40;99.90;;;;;;5064620;28;20086;-85
2023/01/13 10:20:07;;;;;;;25.55;4.97;;;7.50;99.90;;;;;;5076413;28;20128;-85
2023/01/13 10:22:51;;;;;;;23.77;4.90;;;8.30;99.90;;;;;;5056249;28;20124;-84
2023/01/13 10:25:28;;;;;;;37.05;4.65;;;7.60;99.90;;;;;;5056877;28;20036;-84
2023/01/13 10:28:00;;;;;;;21.58;4.10;;;7.50;99.90;;;;;;5055666;28;20035;-85
2023/01/13 10:30:33;;;;;;;39.30;5.72;;;7.60;99.90;;;;;;5057360;28;20079;-85
2023/01/13 10:33:05;;;;;;;26.90;4.28;;;7.60;99.90;;;;;;5074202;28;20052;-84
2023/01/13 10:35:58;;;;;;;29.45;5.13;;;7.60;99.90;;;;;;5074087;28;20055;-84
2023/01/13 10:38:36;;;;;;;24.90;4.13;;;7.60;99.90;;;;;;5056926;28;20054;-84
2023/01/13 10:41:21;;;;;;;24.63;4.25;;;7.60;99.90;;;;;;5057012;28;20074;-84
2023/01/13 10:43:50;;;;;;;33.63;5.00;;;7.60;99.90;;;;;;5057839;28;20544;-84
2023/01/13 10:46:17;;;;;;;28.88;4.43;;;6.00;99.90;;;;;;5059071;28;20044;-84
2023/01/13 10:48:51;;;;;;;27.95;4.78;;;7.60;99.90;;;;;;5037170;28;20048;-87
2023/01/13 10:51:22;;;;;;;28.67;5.50;;;7.60;99.90;;;;;;5072811;28;20074;-86
2023/01/13 10:54:00;;;;;;;30.33;4.68;;;7.60;99.90;;;;;;5058503;28;20128;-87
2023/01/13 10:56:32;;;;;;;27.17;4.20;;;7.60;99.90;;;;;;5076733;28;20028;-87
2023/01/13 10:59:25;;;;;;;24.75;4.55;;;7.60;99.90;;;;;;5067767;28;20138;-87
2023/01/13 11:02:02;;;;;;;23.55;3.45;;;7.60;99.90;;;;;;5078235;28;20054;-86
2023/01/13 11:04:37;;;;;;;24.92;3.80;;;7.60;99.90;;;;;;5058135;28;20036;-87
2023/01/13 11:07:15;;;;;;;27.63;4.78;;;7.60;99.90;;;;;;5056726;28;20047;-87
2023/01/13 11:09:41;;;;;;;29.92;4.50;;;7.60;99.90;;;;;;5058812;28;20052;-87
2023/01/13 11:12:31;;;;;;;34.58;4.47;;;7.60;99.90;;;;;;5040680;28;20503;-87
2023/01/13 11:15:00;;;;;;;25.08;4.28;;;7.60;99.90;;;;;;5072901;28;20056;-87
2023/01/13 11:17:46;;;;;;;28.90;4.47;;;7.70;99.90;;;;;;5074420;28;20426;-59
2023/01/13 11:20:19;;;;;;;15.38;3.25;;;7.80;99.90;;;;;;5055112;28;20494;-59
2023/01/13 11:22:53;;;;;;;21.88;4.32;;;7.90;99.90;;;;;;5062745;28;20432;-59
2023/01/13 11:25:30;;;;;;;35.15;5.60;;;7.90;99.90;;;;;;5068076;28;20155;-60
2023/01/13 11:28:19;;;;;;;22.88;4.10;;;7.90;99.90;;;;;;5065268;28;20056;-59
2023/01/13 11:30:57;;;;;;;17.58;3.50;;;7.90;99.90;;;;;;5066234;28;20044;-59
2023/01/13 11:33:23;;;;;;;22.58;3.58;;;7.90;99.90;;;;;;5066275;28;20053;-60
2023/01/13 11:35:57;;;;;;;19.55;3.60;;;8.00;99.90;;;;;;5066583;28;20172;-58
2023/01/13 11:38:33;;;;;;;23.33;4.45;;;8.00;99.90;;;;;;5065006;28;20109;-59
2023/01/13 11:41:23;;;;;;;29.58;4.00;;;8.10;99.90;;;;;;5061420;28;20063;-59
2023/01/13 11:44:13;;;;;;;22.48;4.03;;;8.20;99.90;;;;;;5066353;28;20132;-59
2023/01/13 11:46:39;;;;;;;20.10;4.03;;;8.20;99.90;;;;;;5060518;28;20041;-60
2023/01/13 11:49:05;;;;;;;28.05;4.18;;;8.20;99.90;;;;;;5051150;28;20663;-59
2023/01/13 11:51:37;;;;;;;18.73;3.08;;;8.30;99.90;;;;;;5064459;28;20056;-59
2023/01/13 11:54:13;;;;;;;18.33;3.67;;;8.30;99.90;;;;;;5066162;28;20052;-58
2023/01/13 11:57:19;;;;;;;20.27;2.90;;;8.40;99.90;;;;;;5062597;28;20048;-59
2023/01/13 12:00:09;;;;;;;22.92;3.47;;;8.40;99.90;;;;;;5069122;28;20661;-59
2023/01/13 12:02:59;;;;;;;20.85;3.50;;;8.40;99.90;;;;;;5061323;28;20060;-59
2023/01/13 12:05:36;;;;;;;19.65;3.22;;;8.40;99.90;;;;;;5064980;28;20132;-60
2023/01/13 12:08:24;;;;;;;16.38;3.03;;;8.40;99.90;;;;;;5065005;28;20102;-59
2023/01/13 12:12:17;;;;;;;19.13;3.28;;;8.50;99.90;;;;;;5061604;28;20055;-60
2023/01/13 12:14:40;;;;;;;17.15;3.08;;;8.50;99.90;;;;;;5025149;28;20080;-60
2023/01/13 12:17:29;;;;;;;17.02;3.15;;;8.50;99.90;;;;;;4995123;28;20068;-61
2023/01/13 12:19:54;;;;;;;13.80;2.95;;;8.60;99.90;;;;;;5058805;28;20052;-59
2023/01/13 12:22:30;;;;;;;20.67;3.35;;;8.60;99.90;;;;;;5065152;28;20513;-58
2023/01/13 12:25:23;;;;;;;16.50;2.97;;;8.60;99.90;;;;;;5062113;28;20053;-60
2023/01/13 12:27:57;;;;;;;11.70;2.35;;;8.60;99.90;;;;;;5051646;28;20061;-60
2023/01/13 12:30:44;;;;;;;20.98;3.00;;;8.60;99.90;;;;;;5052171;28;20041;-60
2023/01/13 12:33:43;;;;;;;13.77;2.40;;;8.50;99.90;;;;;;5054085;28;20056;-59
2023/01/13 12:36:28;;;;;;;17.20;2.95;;;8.60;99.90;;;;;;5051871;28;20494;-60
2023/01/13 12:39:05;;;;;;;19.80;3.67;;;8.50;99.90;;;;;;5052166;28;20048;-60
2023/01/13 12:44:15;;;;;;;11.02;2.38;;;8.50;99.90;;;;;;5051113;28;20709;-59
2023/01/13 12:44:25;;;;;;;15.80;2.42;;;8.60;99.90;;;;;;5051229;28;20041;-60
2023/01/13 12:46:55;;;;;;;15.38;2.55;;;8.60;99.90;;;;;;5053317;28;20468;-60
2023/01/13 12:49:22;;;;;;;13.48;2.92;;;8.50;99.90;;;;;;5052360;28;20512;-60
2023/01/13 12:51:50;;;;;;;18.00;2.85;;;8.60;99.90;;;;;;5052664;28;20052;-60
2023/01/13 12:54:38;;;;;;;17.75;2.45;;;8.60;99.90;;;;;;5052384;28;20380;-61
2023/01/13 12:57:15;;;;;;;15.18;2.45;;;8.70;99.90;;;;;;5050333;28;20516;-60
2023/01/13 12:59:47;;;;;;;20.35;3.03;;;8.70;99.90;;;;;;5050025;28;20478;-60
2023/01/13 13:02:16;;;;;;;12.65;2.40;;;8.70;99.90;;;;;;5049885;28;20049;-61
2023/01/13 13:04:48;;;;;;;18.52;2.45;;;8.70;99.90;;;;;;5050601;28;20517;-61
2023/01/13 13:07:18;;;;;;;18.55;2.47;;;8.70;99.90;;;;;;5048903;28;20058;-61
2023/01/13 13:09:51;;;;;;;10.77;2.33;;;8.70;99.90;;;;;;5049971;28;20037;-60
2023/01/13 13:15:32;;;;;;;15.60;2.72;;;8.80;99.90;;;;;;5050578;28;20085;-60
2023/01/13 13:17:58;;;;;;;13.23;2.42;;;8.80;99.90;;;;;;5052257;28;20057;-60
2023/01/13 13:21:01;;;;;;;13.32;2.78;;;8.80;99.90;;;;;;5048750;28;20046;-60
2023/01/13 13:23:42;;;;;;;15.43;2.40;;;8.80;99.90;;;;;;5040395;28;20096;-62
2023/01/13 13:26:20;;;;;;;15.77;2.50;;;8.80;99.90;;;;;;5049511;28;20045;-61
2023/01/13 13:28:52;;;;;;;17.60;2.70;;;8.70;99.90;;;;;;5049273;28;20060;-60
2023/01/13 13:31:48;;;;;;;14.07;2.97;;;8.80;99.90;;;;;;5047875;28;20045;-62
2023/01/13 13:34:37;;;;;;;16.63;2.73;;;8.80;99.90;;;;;;5049637;28;20493;-60
2023/01/13 13:37:08;;;;;;;12.27;2.13;;;8.80;99.90;;;;;;5046754;28;20088;-61
2023/01/13 13:48:21;;;;;;;9.75;2.30;;;8.80;99.90;;;;;;5048890;28;20053;-61
2023/01/13 13:51:00;;;;;;;11.98;2.53;;;8.80;99.90;;;;;;5049636;28;20052;-61
2023/01/13 13:53:33;;;;;;;12.98;2.47;;;8.80;99.90;;;;;;5046914;28;20136;-62
2023/01/13 13:56:01;;;;;;;13.38;2.78;;;8.70;99.90;;;;;;5048829;28;20043;-60
2023/01/13 13:58:30;;;;;;;14.00;1.95;;;8.70;99.90;;;;;;5046612;28;20041;-60
2023/01/13 14:00:56;;;;;;;13.65;2.42;;;8.70;99.90;;;;;;5047732;28;20064;-60
2023/01/13 14:03:28;;;;;;;8.95;2.15;;;8.70;99.90;;;;;;5048740;28;20045;-62
2023/01/13 14:06:05;;;;;;;11.27;2.30;;;8.70;99.90;;;;;;5059563;28;20128;-61
2023/01/13 14:08:43;;;;;;;14.93;2.45;;;8.70;99.90;;;;;;5048014;28;20335;-61
2023/01/13 14:11:32;;;;;;;11.65;2.22;;;8.80;99.90;;;;;;5049695;28;20099;-61
2023/01/13 14:14:16;;;;;;;15.43;2.75;;;8.80;99.90;;;;;;5046617;28;20041;-59
2023/01/13 14:16:42;;;;;;;13.00;2.30;;;8.80;99.90;;;;;;5043587;28;20096;-60
2023/01/13 14:19:29;;;;;;;17.00;2.30;;;8.80;99.90;;;;;;5031846;28;20056;-60
2023/01/13 14:21:57;;;;;;;14.68;2.40;;;8.90;99.90;;;;;;5048718;28;20083;-61
2023/01/13 14:24:23;;;;;;;17.83;3.00;;;8.90;99.90;;;;;;5034258;28;20041;-60
2023/01/13 14:26:51;;;;;;;18.50;2.42;;;8.90;99.90;;;;;;5048010;28;20033;-60
2023/01/13 14:29:23;;;;;;;11.27;2.35;;;8.90;99.90;;;;;;5047411;28;20045;-61
2023/01/13 14:31:52;;;;;;;11.90;2.30;;;8.90;99.90;;;;;;5043515;28;20420;-61
2023/01/13 14:34:19;;;;;;;17.60;2.83;;;8.90;99.90;;;;;;5050237;28;20554;-61
2023/01/13 14:36:50;;;;;;;12.88;2.30;;;8.90;99.90;;;;;;5043638;28;20041;-61
2023/01/13 14:39:15;;;;;;;9.50;2.00;;;8.90;99.90;;;;;;5043313;28;20076;-61
2023/01/13 14:41:41;;;;;;;16.85;2.95;;;8.90;99.90;;;;;;5050111;28;20053;-61
2023/01/13 14:44:16;;;;;;;13.32;2.08;;;8.90;99.90;;;;;;5045718;28;20109;-61
2023/01/13 14:46:44;;;;;;;11.77;2.47;;;8.90;99.90;;;;;;5046252;28;20671;-60
2023/01/13 14:49:28;;;;;;;8.90;2.20;;;8.90;99.90;;;;;;5044427;28;20049;-61
2023/01/13 14:52:08;;;;;;;14.35;2.40;;;8.90;99.90;;;;;;5046885;28;20048;-60
2023/01/13 14:54:39;;;;;;;9.93;2.25;;;8.90;99.90;;;;;;5045179;28;20081;-60
2023/01/13 14:57:30;;;;;;;11.98;1.90;;;8.90;99.90;;;;;;5024783;28;20543;-61
2023/01/13 15:00:14;;;;;;;14.05;2.42;;;8.90;99.90;;;;;;5044797;28;20332;-61
2023/01/13 15:02:55;;;;;;;9.27;2.42;;;8.90;99.90;;;;;;5042426;28;20080;-60
2023/01/13 15:05:24;;;;;;;13.85;2.10;;;8.90;99.90;;;;;;5042855;28;20472;-61
2023/01/13 15:07:52;;;;;;;9.93;2.05;;;8.90;99.90;;;;;;5044885;28;20052;-62
2023/01/13 15:10:53;;;;;;;11.75;2.42;;;8.90;99.90;;;;;;5039729;28;20045;-60
2023/01/13 15:13:43;;;;;;;10.85;2.13;;;8.90;99.90;;;;;;5046514;28;20060;-60